createdAt,value
2023-04-25T00:00:13.598Z,95404.34
2023-04-25T00:02:42.841Z,95403.88
2023-04-25T00:05:12.223Z,95392.88
2023-04-25T00:07:43.340Z,95397.31
2023-04-25T00:10:13.288Z,95378.19
2023-04-25T00:12:42.892Z,95382.34
2023-04-25T00:15:12.671Z,95383.19
2023-04-25T00:17:41.628Z,95383.88
2023-04-25T00:20:11.879Z,95385.84
2023-04-25T00:22:42.401Z,95383.28
2023-04-25T00:25:11.892Z,95381.69
2023-04-25T00:27:42.960Z,95384.13
2023-04-25T00:30:12.876Z,95382.50
2023-04-25T00:32:41.872Z,95378.56
2023-04-25T00:35:11.652Z,95375.06
2023-04-25T00:37:41.626Z,95379.25
2023-04-25T00:40:11.563Z,95376.03
2023-04-25T00:42:40.425Z,95373.84
2023-04-25T00:45:10.125Z,95372.44
2023-04-25T00:47:38.827Z,95372.56
2023-04-25T00:50:08.926Z,95369.78
2023-04-25T00:52:37.752Z,95372.56
2023-04-25T00:55:08.193Z,95364.91
2023-04-25T00:57:37.771Z,95368.88
2023-04-25T01:00:07.720Z,95367.34
2023-04-25T01:02:36.944Z,95365.88
2023-04-25T01:05:06.419Z,95365.31
2023-04-25T01:07:36.262Z,95361.34
2023-04-25T01:10:06.040Z,95356.75
2023-04-25T01:12:36.302Z,95355.34
2023-04-25T01:15:05.572Z,95307.66
2023-04-25T01:17:34.572Z,95356.88
2023-04-25T01:20:05.801Z,95359.53
2023-04-25T01:22:36.558Z,95361.50
2023-04-25T01:25:05.706Z,95369.84
2023-04-25T01:27:34.610Z,95362.06
2023-04-25T01:30:03.223Z,95358.16
2023-04-25T01:32:39.545Z,95359.31
2023-04-25T01:35:10.606Z,95342.53
2023-04-25T01:37:41.419Z,95353.06
2023-04-25T01:40:10.910Z,95352.25
2023-04-25T01:42:40.883Z,95353.63
2023-04-25T01:45:10.836Z,95356.88
2023-04-25T01:47:40.724Z,95347.47
2023-04-25T01:50:11.319Z,95353.94
2023-04-25T01:52:41.777Z,95350.94
2023-04-25T01:55:11.514Z,95357.78
2023-04-25T01:57:40.835Z,95357.06
2023-04-25T02:00:11.397Z,95361.22
2023-04-25T02:02:39.826Z,95357.19
2023-04-25T02:05:09.637Z,95356.00
2023-04-25T02:07:38.847Z,95354.97
2023-04-25T02:10:09.788Z,95360.94
2023-04-25T02:12:39.457Z,95360.38
2023-04-25T02:15:09.083Z,95353.78
2023-04-25T02:17:39.089Z,95359.78
2023-04-25T02:20:08.874Z,95352.59
2023-04-25T02:22:37.913Z,95368.28
2023-04-25T02:25:09.035Z,95364.47
2023-04-25T02:27:37.751Z,95360.66
2023-04-25T02:30:07.901Z,95356.09
2023-04-25T02:32:37.042Z,95366.97
2023-04-25T02:35:06.334Z,95362.94
2023-04-25T02:37:34.711Z,95369.84
2023-04-25T02:40:04.297Z,95361.75
2023-04-25T02:42:34.035Z,95359.41
2023-04-25T02:45:02.714Z,95365.16
2023-04-25T02:47:31.500Z,95351.03
2023-04-25T02:50:00.495Z,95348.84
2023-04-25T02:52:38.426Z,95342.09
2023-04-25T02:55:08.263Z,95337.69
2023-04-25T02:57:38.015Z,95337.28
2023-04-25T03:00:08.534Z,95332.44
2023-04-25T03:02:36.923Z,95325.63
2023-04-25T03:05:06.056Z,95329.19
2023-04-25T03:07:34.678Z,95327.69
2023-04-25T03:10:03.546Z,95327.41
2023-04-25T03:12:32.057Z,95328.22
2023-04-25T03:15:02.413Z,95330.97
2023-04-25T03:17:30.934Z,95330.97
2023-04-25T03:19:59.979Z,95320.09
2023-04-25T03:22:30.392Z,95323.56
2023-04-25T03:24:59.423Z,95321.94
2023-04-25T03:27:28.064Z,95306.44
2023-04-25T03:29:57.216Z,95319.13
2023-04-25T03:32:27.233Z,95320.75
2023-04-25T03:34:56.457Z,95314.03
2023-04-25T03:37:24.899Z,95310.91
2023-04-25T03:39:53.731Z,95312.75
2023-04-25T03:42:24.116Z,95316.59
2023-04-25T03:44:53.690Z,95313.81
2023-04-25T03:47:22.277Z,95317.19
2023-04-25T03:49:53.055Z,95315.25
2023-04-25T03:52:22.195Z,95303.47
2023-04-25T03:54:50.893Z,95316.84
2023-04-25T03:57:19.727Z,95321.44
2023-04-25T03:59:48.635Z,95328.88
2023-04-25T04:02:17.638Z,95326.41
2023-04-25T04:04:46.783Z,95323.88
2023-04-25T04:07:17.246Z,95327.84
2023-04-25T04:09:45.848Z,95328.88
2023-04-25T04:12:14.641Z,95332.22
2023-04-25T04:14:42.999Z,95325.91
2023-04-25T04:17:11.733Z,95331.47
2023-04-25T04:19:40.694Z,95326.50
2023-04-25T04:22:10.079Z,95320.09
2023-04-25T04:24:40.261Z,95325.28
2023-04-25T04:27:08.620Z,95323.56
2023-04-25T04:29:37.927Z,95334.34
2023-04-25T04:32:06.379Z,95330.97
2023-04-25T04:34:35.255Z,95320.81
2023-04-25T04:37:03.937Z,95328.66
2023-04-25T04:39:32.497Z,95317.06
2023-04-25T04:42:03.254Z,95351.75
2023-04-25T04:44:33.799Z,95337.41
2023-04-25T04:47:03.138Z,95335.56
2023-04-25T04:49:32.038Z,95342.19
2023-04-25T04:52:01.027Z,95332.00
2023-04-25T04:54:30.240Z,95335.03
2023-04-25T04:56:59.864Z,95338.97
2023-04-25T04:59:30.003Z,95343.75
2023-04-25T05:02:00.628Z,95337.28
2023-04-25T05:04:29.681Z,95340.91
2023-04-25T05:07:01.861Z,95344.53
2023-04-25T05:09:30.811Z,95347.97
2023-04-25T05:11:59.652Z,95341.28
2023-04-25T05:14:29.811Z,95342.38
2023-04-25T05:16:58.586Z,95347.38
2023-04-25T05:19:27.696Z,95337.56
2023-04-25T05:21:56.403Z,95333.66
2023-04-25T05:24:25.255Z,95330.88
2023-04-25T05:26:54.415Z,95323.47
2023-04-25T05:29:23.194Z,95326.97
2023-04-25T05:31:54.358Z,95320.13
2023-04-25T05:34:23.169Z,95318.31
2023-04-25T05:36:52.334Z,95317.28
2023-04-25T05:39:21.251Z,95316.03
2023-04-25T05:41:50.213Z,95316.97
2023-04-25T05:44:18.517Z,95315.09
2023-04-25T05:46:47.137Z,95310.34
2023-04-25T05:49:18.951Z,95306.03
2023-04-25T05:51:47.894Z,95304.63
2023-04-25T05:54:16.340Z,95299.41
2023-04-25T05:56:45.030Z,95305.03
2023-04-25T05:59:14.140Z,95306.75
2023-04-25T06:01:42.778Z,95315.97
2023-04-25T06:04:11.835Z,95318.13
2023-04-25T06:06:42.196Z,95307.88
2023-04-25T06:09:12.719Z,95312.56
2023-04-25T06:11:42.957Z,95312.94
2023-04-25T06:14:12.156Z,95304.44
2023-04-25T06:16:40.845Z,95318.53
2023-04-25T06:19:09.487Z,95325.34
2023-04-25T06:21:38.054Z,95313.16
2023-04-25T06:24:08.907Z,95307.25
2023-04-25T06:26:37.423Z,95312.44
2023-04-25T06:29:06.304Z,95305.56
2023-04-25T06:31:35.611Z,95312.06
2023-04-25T06:34:04.468Z,95308.81
2023-04-25T06:36:32.955Z,95311.00
2023-04-25T06:39:04.003Z,95302.66
2023-04-25T06:41:33.704Z,95304.84
2023-04-25T06:44:02.869Z,95305.69
2023-04-25T06:46:31.403Z,95292.34
2023-04-25T06:49:00.041Z,95290.34
2023-04-25T06:51:30.954Z,95285.31
2023-04-25T06:53:59.879Z,95288.69
2023-04-25T06:56:31.923Z,95284.00
2023-04-25T06:59:02.180Z,95292.88
2023-04-25T07:01:31.466Z,95292.47
2023-04-25T07:04:00.583Z,95291.25
2023-04-25T07:06:30.258Z,95284.38
2023-04-25T07:08:59.063Z,95282.91
2023-04-25T07:11:27.702Z,95282.53
2023-04-25T07:13:56.673Z,95271.75
2023-04-25T07:16:26.895Z,95277.66
2023-04-25T07:18:55.736Z,95274.44
2023-04-25T07:21:25.082Z,95262.16
2023-04-25T07:23:54.157Z,95266.69
2023-04-25T07:26:23.078Z,95261.28
2023-04-25T07:28:52.813Z,95261.69
2023-04-25T07:31:21.803Z,95262.91
2023-04-25T07:33:51.839Z,95255.31
2023-04-25T07:36:20.396Z,95248.13
2023-04-25T07:38:49.421Z,95259.88
2023-04-25T07:41:20.562Z,95265.00
2023-04-25T07:43:49.069Z,95249.94
2023-04-25T07:46:17.662Z,95251.22
2023-04-25T07:48:46.136Z,95245.34
2023-04-25T07:51:16.316Z,95246.69
2023-04-25T07:53:45.362Z,95246.03
2023-04-25T07:56:13.979Z,95241.31
2023-04-25T07:58:42.743Z,95242.00
2023-04-25T08:01:11.254Z,95246.00
2023-04-25T08:03:40.133Z,95237.09
2023-04-25T08:06:09.361Z,95231.34
2023-04-25T08:08:39.713Z,95227.53
2023-04-25T08:11:08.700Z,95234.94
2023-04-25T08:13:37.263Z,95229.97
2023-04-25T08:16:07.152Z,95237.31
2023-04-25T08:18:36.326Z,95236.19
2023-04-25T08:21:05.492Z,95236.66
2023-04-25T08:23:34.571Z,95230.50
2023-04-25T08:26:05.931Z,95236.16
2023-04-25T08:28:34.683Z,95234.38
2023-04-25T08:31:03.550Z,95229.59
2023-04-25T08:33:34.065Z,95233.78
2023-04-25T08:36:03.232Z,95228.00
2023-04-25T08:38:32.683Z,95216.47
2023-04-25T08:41:03.337Z,95223.78
2023-04-25T08:43:33.728Z,95213.13
2023-04-25T08:46:02.846Z,95231.66
2023-04-25T08:48:31.536Z,95217.03
2023-04-25T08:51:01.066Z,95216.03
2023-04-25T08:53:31.527Z,95229.06
2023-04-25T08:56:02.846Z,95218.88
2023-04-25T08:58:33.706Z,95215.94
2023-04-25T09:01:02.516Z,95221.09
2023-04-25T09:03:31.335Z,95215.84
2023-04-25T09:06:02.533Z,95216.19
2023-04-25T09:08:31.403Z,95199.09
2023-04-25T09:11:00.374Z,95199.75
2023-04-25T09:13:30.306Z,95205.06
2023-04-25T09:16:01.011Z,95200.09
2023-04-25T09:18:31.217Z,95197.84
2023-04-25T09:21:14.205Z,95193.38
2023-04-25T09:23:46.097Z,95209.81
2023-04-25T09:26:17.166Z,95217.97
2023-04-25T09:28:47.064Z,95228.78
2023-04-25T09:31:25.865Z,95232.44
2023-04-25T09:34:01.573Z,95228.06
2023-04-25T09:36:34.013Z,95239.16
2023-04-25T09:39:04.848Z,95246.28
2023-04-25T09:41:33.850Z,95258.44
2023-04-25T09:44:03.697Z,95254.19
2023-04-25T09:46:38.349Z,95265.94
2023-04-25T09:49:09.778Z,95280.09
2023-04-25T09:51:39.207Z,95270.69
2023-04-25T09:54:08.192Z,95270.44
2023-04-25T09:56:39.154Z,95278.34
2023-04-25T09:59:08.598Z,95287.00
2023-04-25T10:01:42.368Z,95295.28
2023-04-25T10:04:13.622Z,95286.97
2023-04-25T10:06:44.372Z,95276.06
2023-04-25T10:09:13.740Z,95278.63
2023-04-25T10:11:43.528Z,95282.00
2023-04-25T10:14:12.375Z,95277.00
2023-04-25T10:16:43.164Z,95280.09
2023-04-25T10:19:12.460Z,95274.97
2023-04-25T10:21:46.821Z,95260.78
2023-04-25T10:24:15.904Z,95265.72
2023-04-25T10:26:44.678Z,95267.28
2023-04-25T10:29:13.489Z,95255.22
2023-04-25T10:31:49.311Z,95249.47
2023-04-25T10:34:18.690Z,95251.47
2023-04-25T10:36:53.223Z,95246.41
2023-04-25T10:39:26.491Z,95237.19
2023-04-25T10:41:56.322Z,95229.88
2023-04-25T10:44:25.116Z,95239.84
2023-04-25T10:46:54.977Z,95244.69
2023-04-25T10:49:37.256Z,95267.59
2023-04-25T10:52:17.349Z,95252.47
2023-04-25T10:54:49.631Z,95266.66
2023-04-25T10:57:39.370Z,95271.84
2023-04-25T11:00:12.201Z,95263.97
2023-04-25T11:02:46.672Z,95259.03
2023-04-25T11:05:27.802Z,95164.94
2023-04-25T11:10:30.668Z,95248.97
2023-04-25T11:13:01.215Z,95236.50
2023-04-25T11:15:34.157Z,95234.09
2023-04-25T11:18:06.587Z,95232.44
2023-04-25T11:20:35.325Z,95238.22
2023-04-25T11:25:38.881Z,95227.28
2023-04-25T11:28:08.105Z,95223.97
2023-04-25T11:30:37.671Z,95233.25
2023-04-25T11:33:07.930Z,95224.13
2023-04-25T11:35:36.660Z,95225.75
2023-04-25T11:38:05.749Z,95215.03
2023-04-25T11:40:34.720Z,95219.28
2023-04-25T11:43:03.993Z,95217.13
2023-04-25T11:45:37.563Z,95217.28
2023-04-25T11:48:08.539Z,95214.66
2023-04-25T11:50:37.195Z,95220.78
2023-04-25T11:53:05.693Z,95215.84
2023-04-25T11:55:34.569Z,95221.50
2023-04-25T11:58:04.962Z,95223.78
2023-04-25T12:00:34.031Z,95236.63
2023-04-25T12:03:08.346Z,95252.72
2023-04-25T12:05:39.030Z,95284.31
2023-04-25T12:08:14.770Z,95289.22
2023-04-25T12:10:44.463Z,95275.03
2023-04-25T12:13:23.727Z,95288.59
2023-04-25T12:15:53.056Z,95280.13
2023-04-25T12:18:25.489Z,95287.28
2023-04-25T12:20:55.107Z,95297.88
2023-04-25T12:23:29.323Z,95287.47
2023-04-25T12:25:58.985Z,95264.72
2023-04-25T12:28:28.834Z,95271.16
2023-04-25T12:30:59.062Z,95269.19
2023-04-25T12:33:30.900Z,95269.81
2023-04-25T12:35:59.813Z,95274.44
2023-04-25T12:38:31.463Z,95256.69
2023-04-25T12:41:01.110Z,95258.22
2023-04-25T12:43:30.435Z,95249.63
2023-04-25T12:45:59.142Z,95257.88
2023-04-25T12:48:29.527Z,95251.81
2023-04-25T12:50:58.143Z,95256.28
2023-04-25T12:53:26.665Z,95251.44
2023-04-25T12:58:29.811Z,95245.38
2023-04-25T13:00:59.568Z,95245.31
2023-04-25T13:03:30.001Z,95241.78
2023-04-25T13:05:58.829Z,95247.28
2023-04-25T13:08:28.148Z,95256.19
2023-04-25T13:10:56.926Z,95255.19
2023-04-25T13:13:25.666Z,95254.38
2023-04-25T13:15:54.508Z,95263.53
2023-04-25T13:18:27.555Z,95262.84
2023-04-25T13:20:58.408Z,95256.00
2023-04-25T13:23:28.467Z,95232.28
2023-04-25T13:25:58.998Z,95271.13
2023-04-25T13:28:27.894Z,95289.38
2023-04-25T13:30:57.073Z,95300.53
2023-04-25T13:33:25.701Z,95312.06
2023-04-25T13:35:57.598Z,95315.56
2023-04-25T13:38:30.110Z,95307.06
2023-04-25T13:40:59.130Z,95307.31
2023-04-25T13:43:28.095Z,95310.63
2023-04-25T13:45:57.287Z,95310.34
2023-04-25T13:48:27.660Z,95321.38
2023-04-25T13:50:56.653Z,95315.53
2023-04-25T13:53:26.942Z,95323.41
2023-04-25T13:55:55.939Z,95321.50
2023-04-25T13:58:24.781Z,95325.22
2023-04-25T14:00:53.502Z,95320.75
2023-04-25T14:03:22.734Z,95327.41
2023-04-25T14:05:52.318Z,95351.63
2023-04-25T14:08:21.711Z,95351.63
2023-04-25T14:10:52.079Z,95367.97
2023-04-25T14:13:20.968Z,95372.59
2023-04-25T14:15:51.461Z,95373.91
2023-04-25T14:18:20.574Z,95384.13
2023-04-25T14:20:49.520Z,95396.41
2023-04-25T14:23:19.022Z,95397.47
2023-04-25T14:25:52.981Z,95406.91
2023-04-25T14:28:25.471Z,95419.47
2023-04-25T14:30:54.129Z,95424.09
2023-04-25T14:33:23.099Z,95422.56
2023-04-25T14:35:51.675Z,95411.28
2023-04-25T14:38:24.583Z,95411.41
2023-04-25T14:40:55.356Z,95406.06
2023-04-25T14:43:23.994Z,95400.50
2023-04-25T14:45:52.656Z,95396.22
2023-04-25T14:48:21.666Z,95393.88
2023-04-25T14:50:50.141Z,95387.47
2023-04-25T14:53:18.713Z,95376.44
2023-04-25T14:55:47.411Z,95378.44
2023-04-25T14:58:17.983Z,95376.25
2023-04-25T15:00:46.591Z,95362.78
2023-04-25T15:03:18.126Z,95374.38
2023-04-25T15:05:47.549Z,95371.41
2023-04-25T15:08:18.139Z,95380.34
2023-04-25T15:10:47.247Z,95365.41
2023-04-25T15:13:17.843Z,95376.88
2023-04-25T15:15:52.449Z,95385.50
2023-04-25T15:18:24.929Z,95406.25
2023-04-25T15:20:54.234Z,95420.84
2023-04-25T15:23:23.778Z,95417.19
2023-04-25T15:25:54.140Z,95426.56
2023-04-25T15:28:26.769Z,95427.53
2023-04-25T15:30:55.190Z,95423.03
2023-04-25T15:33:24.474Z,95422.53
2023-04-25T15:35:53.746Z,95422.66
2023-04-25T15:38:22.113Z,95424.00
2023-04-25T15:40:50.947Z,95422.66
2023-04-25T15:43:21.135Z,95426.81
2023-04-25T15:45:51.481Z,95418.47
2023-04-25T15:48:20.503Z,95413.44
2023-04-25T15:50:49.810Z,95424.88
2023-04-25T15:53:18.562Z,95413.75
2023-04-25T15:55:47.408Z,95413.31
2023-04-25T15:58:16.316Z,95411.69
2023-04-25T16:00:44.779Z,95413.75
2023-04-25T16:03:15.976Z,95400.34
2023-04-25T16:05:48.405Z,95412.31
2023-04-25T16:08:17.364Z,95405.34
2023-04-25T16:10:46.574Z,95408.56
2023-04-25T16:13:15.517Z,95403.22
2023-04-25T16:15:44.081Z,95397.75
2023-04-25T16:18:17.254Z,95409.25
2023-04-25T16:20:46.500Z,95401.94
2023-04-25T16:23:15.299Z,95397.19
2023-04-25T16:25:44.669Z,95404.66
2023-04-25T16:28:14.894Z,95398.38
2023-04-25T16:30:43.461Z,95393.56
2023-04-25T16:33:13.059Z,95398.44
2023-04-25T16:35:43.587Z,95410.94
2023-04-25T16:38:12.946Z,95411.38
2023-04-25T16:40:41.907Z,95414.75
2023-04-25T16:43:10.585Z,95410.13
2023-04-25T16:45:39.543Z,95426.91
2023-04-25T16:48:10.384Z,95426.97
2023-04-25T16:50:39.786Z,95425.75
2023-04-25T16:53:09.965Z,95420.03
2023-04-25T16:55:38.845Z,95428.38
2023-04-25T16:58:09.924Z,95437.09
2023-04-25T17:00:39.477Z,95405.22
2023-04-25T17:03:08.603Z,95431.63
2023-04-25T17:05:37.934Z,95405.38
2023-04-25T17:08:06.984Z,95442.22
2023-04-25T17:10:37.332Z,95444.88
2023-04-25T17:13:06.428Z,95448.06
2023-04-25T17:15:35.696Z,95457.00
2023-04-25T17:18:04.561Z,95461.50
2023-04-25T17:20:34.108Z,95462.75
2023-04-25T17:23:03.555Z,95468.97
2023-04-25T17:25:33.101Z,95456.97
2023-04-25T17:28:04.105Z,95464.22
2023-04-25T17:30:34.599Z,95467.94
2023-04-25T17:33:03.702Z,95467.16
2023-04-25T17:35:34.041Z,95471.06
2023-04-25T17:38:03.614Z,95472.91
2023-04-25T17:40:32.705Z,95474.44
2023-04-25T17:43:03.158Z,95473.03
2023-04-25T17:45:34.936Z,95476.41
2023-04-25T17:48:04.025Z,95476.78
2023-04-25T17:50:33.982Z,95470.53
2023-04-25T17:53:03.942Z,95475.53
2023-04-25T17:55:32.666Z,95484.94
2023-04-25T17:58:02.716Z,95488.41
2023-04-25T18:00:32.672Z,95498.59
2023-04-25T18:03:02.775Z,95497.13
2023-04-25T18:05:32.977Z,95491.91
2023-04-25T18:08:01.947Z,95504.19
2023-04-25T18:10:31.456Z,95507.66
2023-04-25T18:13:04.958Z,95511.28
2023-04-25T18:15:33.891Z,95521.47
2023-04-25T18:18:09.901Z,95527.63
2023-04-25T18:20:38.902Z,95536.78
2023-04-25T18:23:09.038Z,95544.69
2023-04-25T18:25:37.712Z,95543.41
2023-04-25T18:28:08.848Z,95548.16
2023-04-25T18:30:38.329Z,95554.28
2023-04-25T18:33:07.340Z,95550.72
2023-04-25T18:35:40.459Z,95565.56
2023-04-25T18:38:16.957Z,95563.34
2023-04-25T18:40:58.148Z,95578.28
2023-04-25T18:43:33.458Z,95580.94
2023-04-25T18:46:02.956Z,95577.22
2023-04-25T18:48:32.471Z,95586.28
2023-04-25T18:51:01.497Z,95601.69
2023-04-25T18:53:30.210Z,95592.75
2023-04-25T18:55:59.149Z,95594.84
2023-04-25T18:58:28.552Z,95599.22
2023-04-25T19:01:02.142Z,95599.94
2023-04-25T19:03:32.044Z,95603.19
2023-04-25T19:06:03.616Z,95600.16
2023-04-25T19:08:32.242Z,95611.03
2023-04-25T19:11:18.104Z,95621.00
2023-04-25T19:13:50.602Z,95617.16
2023-04-25T19:16:22.527Z,95615.31
2023-04-25T19:18:52.929Z,95606.25
2023-04-25T19:21:23.177Z,95582.94
2023-04-25T19:23:54.684Z,95616.56
2023-04-25T19:26:24.373Z,95620.97
2023-04-25T19:29:05.248Z,95621.28
2023-04-25T19:31:39.737Z,95625.09
2023-04-25T19:34:10.554Z,95622.28
2023-04-25T19:36:40.100Z,95632.81
2023-04-25T19:39:09.786Z,95634.28
2023-04-25T19:41:39.844Z,95609.72
2023-04-25T19:44:10.112Z,95641.47
2023-04-25T19:46:41.332Z,95633.13
2023-04-25T19:49:10.705Z,95640.16
2023-04-25T19:51:39.677Z,95642.22
2023-04-25T19:54:08.856Z,95644.69
2023-04-25T19:56:37.942Z,95647.75
2023-04-25T19:59:07.016Z,95643.59
2023-04-25T20:01:36.532Z,95646.25
2023-04-25T20:04:07.773Z,95645.31
2023-04-25T20:06:37.202Z,95653.28
2023-04-25T20:09:06.860Z,95655.34
2023-04-25T20:11:35.791Z,95651.97
2023-04-25T20:14:05.854Z,95654.06
2023-04-25T20:16:35.174Z,95644.19
2023-04-25T20:19:06.053Z,95647.34
2023-04-25T20:21:37.687Z,95647.22
2023-04-25T20:24:07.844Z,95656.47
2023-04-25T20:26:36.816Z,95655.88
2023-04-25T20:29:06.313Z,95650.31
2023-04-25T20:31:37.029Z,95657.03
2023-04-25T20:34:07.144Z,95658.66
2023-04-25T20:36:37.326Z,95672.09
2023-04-25T20:39:06.021Z,95660.97
2023-04-25T20:41:37.876Z,95662.41
2023-04-25T20:44:10.136Z,95659.63
2023-04-25T20:46:38.995Z,95661.25
2023-04-25T20:49:07.863Z,95669.44
2023-04-25T20:51:38.278Z,95673.69
2023-04-25T20:54:08.937Z,95680.00
2023-04-25T20:56:38.305Z,95686.25
2023-04-25T20:59:07.041Z,95688.91
2023-04-25T21:01:35.937Z,95688.19
2023-04-25T21:04:06.617Z,95683.22
2023-04-25T21:06:35.454Z,95694.28
2023-04-25T21:09:07.402Z,95695.53
2023-04-25T21:11:36.423Z,95701.63
2023-04-25T21:14:05.541Z,95694.44
2023-04-25T21:16:35.547Z,95699.19
2023-04-25T21:19:04.472Z,95710.00
2023-04-25T21:21:33.808Z,95707.75
2023-04-25T21:24:05.564Z,95708.16
2023-04-25T21:26:36.997Z,95716.09
2023-04-25T21:29:05.793Z,95725.25
2023-04-25T21:31:34.636Z,95722.81
2023-04-25T21:34:08.233Z,95723.59
2023-04-25T21:36:40.336Z,95724.63
2023-04-25T21:39:11.035Z,95724.44
2023-04-25T21:41:41.317Z,95726.69
2023-04-25T21:44:12.483Z,95725.66
2023-04-25T21:46:41.594Z,95724.66
2023-04-25T21:49:10.803Z,95726.16
2023-04-25T21:51:39.565Z,95726.88
2023-04-25T21:54:08.485Z,95726.78
2023-04-25T21:56:37.459Z,95728.31
2023-04-25T21:59:07.859Z,95731.56
2023-04-25T22:01:39.655Z,95739.41
2023-04-25T22:04:08.469Z,95740.13
2023-04-25T22:06:37.093Z,95751.41
2023-04-25T22:09:06.290Z,95749.47
2023-04-25T22:11:35.536Z,95751.09
2023-04-25T22:14:04.535Z,95746.09
2023-04-25T22:16:34.968Z,95673.44
2023-04-25T22:19:06.168Z,95747.31
2023-04-25T22:21:34.789Z,95747.81
2023-04-25T22:24:07.756Z,95754.34
2023-04-25T22:26:36.435Z,95752.22
2023-04-25T22:29:05.355Z,95757.81
2023-04-25T22:31:36.012Z,95759.53
2023-04-25T22:34:04.747Z,95767.16
2023-04-25T22:36:34.136Z,95776.22
2023-04-25T22:39:03.335Z,95767.00
2023-04-25T22:41:32.391Z,95771.66
2023-04-25T22:44:00.903Z,95771.44
2023-04-25T22:46:30.211Z,95780.94
2023-04-25T22:49:00.132Z,95777.34
2023-04-25T22:51:29.367Z,95775.84
2023-04-25T22:53:58.036Z,95777.78
2023-04-25T22:56:27.198Z,95785.19
2023-04-25T22:58:55.974Z,95796.88
2023-04-25T23:01:25.055Z,95794.81
2023-04-25T23:03:54.144Z,95794.81
2023-04-25T23:06:25.052Z,95784.84
2023-04-25T23:08:54.238Z,95784.34
2023-04-25T23:11:24.047Z,95787.41
2023-04-25T23:13:53.182Z,95784.88
2023-04-25T23:16:22.125Z,95785.78
2023-04-25T23:18:51.231Z,95784.34
2023-04-25T23:21:20.291Z,95792.41
2023-04-25T23:23:51.361Z,95803.38
2023-04-25T23:26:21.587Z,95797.44
2023-04-25T23:28:51.172Z,95798.91
2023-04-25T23:31:20.251Z,95796.88
2023-04-25T23:33:49.418Z,95804.28
2023-04-25T23:36:20.038Z,95806.72
2023-04-25T23:38:50.821Z,95795.78
2023-04-25T23:41:20.160Z,95796.66
2023-04-25T23:43:48.942Z,95774.09
2023-04-25T23:46:19.236Z,95774.41
2023-04-25T23:48:47.849Z,95786.03
2023-04-25T23:51:16.971Z,95786.03
2023-04-25T23:53:45.342Z,95789.56
2023-04-25T23:56:15.513Z,95804.50
2023-04-25T23:58:44.475Z,95811.81
